sensor_id;sensor_type;location;lat;lon;timestamp;pressure;altitude;pressure_sealevel;temperature;humidity
35910;BME280;22004;49.120;-0.200;2023-02-12T00:01:29;103536.69;;;9.31;72.04
35910;BME280;22004;49.120;-0.200;2023-02-12T00:03:55;103538.63;;;9.42;71.52
35910;BME280;22004;49.120;-0.200;2023-02-12T00:06:21;103540.81;;;9.88;69.41
35910;BME280;22004;49.120;-0.200;2023-02-12T00:08:51;103536.47;;;9.22;72.60
35910;BME280;22004;49.120;-0.200;2023-02-12T00:11:19;103534.69;;;9.48;71.33
35910;BME280;22004;49.120;-0.200;2023-02-12T00:13:45;103527.19;;;9.13;73.17
35910;BME280;22004;49.120;-0.200;2023-02-12T00:16:13;103524.44;;;9.27;72.17
35910;BME280;22004;49.120;-0.200;2023-02-12T00:18:39;103520.56;;;9.06;72.76
35910;BME280;22004;49.120;-0.200;2023-02-12T00:21:05;103526.91;;;9.18;72.29
35910;BME280;22004;49.120;-0.200;2023-02-12T00:23:33;103525.91;;;9.71;70.26
35910;BME280;22004;49.120;-0.200;2023-02-12T00:25:59;103525.94;;;9.19;72.77
35910;BME280;22004;49.120;-0.200;2023-02-12T00:28:25;103517.41;;;9.77;70.02
35910;BME280;22004;49.120;-0.200;2023-02-12T00:30:51;103527.06;;;9.54;70.71
35910;BME280;22004;49.120;-0.200;2023-02-12T00:33:16;103524.63;;;9.12;72.66
35910;BME280;22004;49.120;-0.200;2023-02-12T00:35:41;103517.06;;;9.31;71.67
35910;BME280;22004;49.120;-0.200;2023-02-12T00:38:07;103517.63;;;9.62;70.22
35910;BME280;22004;49.120;-0.200;2023-02-12T00:40:32;103516.25;;;9.56;70.57
35910;BME280;22004;49.120;-0.200;2023-02-12T00:42:57;103511.63;;;9.45;71.19
35910;BME280;22004;49.120;-0.200;2023-02-12T00:45:23;103516.75;;;9.74;69.85
35910;BME280;22004;49.120;-0.200;2023-02-12T00:47:48;103514.63;;;9.41;71.59
35910;BME280;22004;49.120;-0.200;2023-02-12T00:50:13;103513.63;;;9.29;71.84
35910;BME280;22004;49.120;-0.200;2023-02-12T00:52:39;103516.47;;;9.00;72.89
35910;BME280;22004;49.120;-0.200;2023-02-12T00:55:04;103514.81;;;9.38;71.40
35910;BME280;22004;49.120;-0.200;2023-02-12T00:57:30;103509.34;;;9.39;71.44
35910;BME280;22004;49.120;-0.200;2023-02-12T00:59:57;103510.75;;;9.57;70.51
35910;BME280;22004;49.120;-0.200;2023-02-12T01:02:22;103514.09;;;9.74;69.81
35910;BME280;22004;49.120;-0.200;2023-02-12T01:04:48;103511.78;;;9.29;71.41
35910;BME280;22004;49.120;-0.200;2023-02-12T01:07:13;103513.63;;;9.29;71.75
35910;BME280;22004;49.120;-0.200;2023-02-12T01:09:38;103505.69;;;9.27;71.68
35910;BME280;22004;49.120;-0.200;2023-02-12T01:12:04;103511.41;;;9.74;69.80
35910;BME280;22004;49.120;-0.200;2023-02-12T01:14:30;103506.03;;;9.74;69.67
35910;BME280;22004;49.120;-0.200;2023-02-12T01:16:55;103501.19;;;9.28;71.52
35910;BME280;22004;49.120;-0.200;2023-02-12T01:19:20;103508.66;;;9.10;72.72
35910;BME280;22004;49.120;-0.200;2023-02-12T01:21:46;103506.25;;;8.93;72.98
35910;BME280;22004;49.120;-0.200;2023-02-12T01:24:11;103506.19;;;9.07;72.60
35910;BME280;22004;49.120;-0.200;2023-02-12T01:26:36;103500.53;;;9.24;71.74
35910;BME280;22004;49.120;-0.200;2023-02-12T01:29:04;103499.03;;;9.33;71.51
35910;BME280;22004;49.120;-0.200;2023-02-12T01:31:37;103497.69;;;9.40;71.00
35910;BME280;22004;49.120;-0.200;2023-02-12T01:34:04;103492.59;;;9.10;71.90
35910;BME280;22004;49.120;-0.200;2023-02-12T01:36:30;103497.94;;;9.10;72.18
35910;BME280;22004;49.120;-0.200;2023-02-12T01:38:56;103499.38;;;8.89;73.28
35910;BME280;22004;49.120;-0.200;2023-02-12T01:41:29;103494.34;;;9.49;71.09
35910;BME280;22004;49.120;-0.200;2023-02-12T01:44:15;103497.72;;;8.73;73.36
35910;BME280;22004;49.120;-0.200;2023-02-12T01:46:42;103503.66;;;8.64;73.71
35910;BME280;22004;49.120;-0.200;2023-02-12T01:49:18;103496.50;;;9.04;72.40
35910;BME280;22004;49.120;-0.200;2023-02-12T01:51:46;103496.75;;;9.14;72.03
35910;BME280;22004;49.120;-0.200;2023-02-12T01:54:14;103498.22;;;8.66;73.31
35910;BME280;22004;49.120;-0.200;2023-02-12T01:56:41;103496.91;;;9.25;71.83
35910;BME280;22004;49.120;-0.200;2023-02-12T01:59:07;103499.06;;;8.93;72.75
35910;BME280;22004;49.120;-0.200;2023-02-12T02:01:33;103499.09;;;8.66;73.53
35910;BME280;22004;49.120;-0.200;2023-02-12T02:04:11;103498.91;;;8.55;73.85
35910;BME280;22004;49.120;-0.200;2023-02-12T02:06:45;103496.66;;;8.76;73.22
35910;BME280;22004;49.120;-0.200;2023-02-12T02:09:11;103500.88;;;8.93;72.55
35910;BME280;22004;49.120;-0.200;2023-02-12T02:11:37;103496.59;;;9.30;71.40
35910;BME280;22004;49.120;-0.200;2023-02-12T02:14:20;103493.44;;;9.11;72.12
35910;BME280;22004;49.120;-0.200;2023-02-12T02:17:14;103480.00;;;8.98;72.40
35910;BME280;22004;49.120;-0.200;2023-02-12T02:33:35;103496.75;;;8.74;73.59
35910;BME280;22004;49.120;-0.200;2023-02-12T02:44:34;103478.59;;;8.92;72.73
35910;BME280;22004;49.120;-0.200;2023-02-12T02:47:02;103482.84;;;9.22;71.66
35910;BME280;22004;49.120;-0.200;2023-02-12T02:49:35;103483.84;;;8.94;72.46
35910;BME280;22004;49.120;-0.200;2023-02-12T02:52:08;103481.38;;;9.30;71.40
35910;BME280;22004;49.120;-0.200;2023-02-12T02:54:45;103470.44;;;8.94;72.52
35910;BME280;22004;49.120;-0.200;2023-02-12T02:57:17;103468.19;;;9.66;70.01
35910;BME280;22004;49.120;-0.200;2023-02-12T02:59:48;103464.84;;;9.49;70.08
35910;BME280;22004;49.120;-0.200;2023-02-12T03:02:27;103478.34;;;9.73;69.41
35910;BME280;22004;49.120;-0.200;2023-02-12T03:04:57;103476.41;;;9.24;71.26
35910;BME280;22004;49.120;-0.200;2023-02-12T03:07:27;103477.75;;;8.92;72.68
35910;BME280;22004;49.120;-0.200;2023-02-12T03:10:09;103469.56;;;8.80;73.05
35910;BME280;22004;49.120;-0.200;2023-02-12T03:12:40;103453.69;;;9.43;70.75
35910;BME280;22004;49.120;-0.200;2023-02-12T03:15:16;103456.88;;;9.73;69.22
35910;BME280;22004;49.120;-0.200;2023-02-12T03:17:45;103457.53;;;8.73;72.81
35910;BME280;22004;49.120;-0.200;2023-02-12T03:20:17;103448.03;;;8.82;72.75
35910;BME280;22004;49.120;-0.200;2023-02-12T03:22:52;103457.50;;;8.61;73.56
35910;BME280;22004;49.120;-0.200;2023-02-12T03:25:37;103457.09;;;9.19;71.71
35910;BME280;22004;49.120;-0.200;2023-02-12T03:30:43;103454.03;;;9.51;69.90
35910;BME280;22004;49.120;-0.200;2023-02-12T03:33:28;103458.50;;;9.63;69.71
35910;BME280;22004;49.120;-0.200;2023-02-12T03:36:00;103454.66;;;8.76;73.38
35910;BME280;22004;49.120;-0.200;2023-02-12T03:38:34;103453.03;;;9.77;69.47
35910;BME280;22004;49.120;-0.200;2023-02-12T03:41:11;103448.41;;;9.79;69.47
35910;BME280;22004;49.120;-0.200;2023-02-12T03:43:47;103445.19;;;9.11;72.04
35910;BME280;22004;49.120;-0.200;2023-02-12T03:46:28;103444.81;;;9.55;70.19
35910;BME280;22004;49.120;-0.200;2023-02-12T03:49:26;103441.84;;;9.83;69.07
35910;BME280;22004;49.120;-0.200;2023-02-12T03:51:53;103443.91;;;9.54;70.34
35910;BME280;22004;49.120;-0.200;2023-02-12T03:54:20;103446.78;;;9.00;72.17
35910;BME280;22004;49.120;-0.200;2023-02-12T03:59:27;103444.59;;;8.53;73.51
35910;BME280;22004;49.120;-0.200;2023-02-12T04:01:55;103445.94;;;9.64;69.90
35910;BME280;22004;49.120;-0.200;2023-02-12T04:04:22;103446.69;;;9.02;71.43
35910;BME280;22004;49.120;-0.200;2023-02-12T04:06:48;103439.94;;;9.35;70.70
35910;BME280;22004;49.120;-0.200;2023-02-12T04:09:15;103451.28;;;9.00;72.24
35910;BME280;22004;49.120;-0.200;2023-02-12T04:14:45;103451.72;;;8.67;73.30
35910;BME280;22004;49.120;-0.200;2023-02-12T04:17:20;103449.63;;;8.31;74.69
35910;BME280;22004;49.120;-0.200;2023-02-12T04:20:19;103448.63;;;8.73;73.46
35910;BME280;22004;49.120;-0.200;2023-02-12T04:25:42;103438.09;;;9.10;72.22
35910;BME280;22004;49.120;-0.200;2023-02-12T04:30:53;103444.66;;;8.66;73.37
35910;BME280;22004;49.120;-0.200;2023-02-12T04:33:20;103440.38;;;9.16;72.08
35910;BME280;22004;49.120;-0.200;2023-02-12T04:36:08;103442.25;;;8.75;73.06
35910;BME280;22004;49.120;-0.200;2023-02-12T04:38:40;103444.91;;;8.34;74.60
35910;BME280;22004;49.120;-0.200;2023-02-12T04:41:08;103448.38;;;8.50;74.56
35910;BME280;22004;49.120;-0.200;2023-02-12T04:43:35;103445.09;;;8.72;73.63
35910;BME280;22004;49.120;-0.200;2023-02-12T04:46:05;103453.56;;;8.66;74.13
35910;BME280;22004;49.120;-0.200;2023-02-12T04:48:31;103444.56;;;8.67;73.90
35910;BME280;22004;49.120;-0.200;2023-02-12T04:50:59;103442.63;;;8.69;73.62
35910;BME280;22004;49.120;-0.200;2023-02-12T04:53:25;103446.53;;;8.51;74.44
35910;BME280;22004;49.120;-0.200;2023-02-12T04:55:50;103449.81;;;8.42;74.82
35910;BME280;22004;49.120;-0.200;2023-02-12T04:58:16;103452.41;;;8.70;74.20
35910;BME280;22004;49.120;-0.200;2023-02-12T05:00:41;103455.94;;;8.84;73.48
35910;BME280;22004;49.120;-0.200;2023-02-12T05:03:07;103446.91;;;9.12;72.82
35910;BME280;22004;49.120;-0.200;2023-02-12T05:05:32;103453.50;;;8.93;72.49
35910;BME280;22004;49.120;-0.200;2023-02-12T05:07:58;103456.91;;;8.83;73.08
35910;BME280;22004;49.120;-0.200;2023-02-12T05:10:23;103452.22;;;8.59;74.09
35910;BME280;22004;49.120;-0.200;2023-02-12T05:12:53;103456.22;;;8.25;75.48
35910;BME280;22004;49.120;-0.200;2023-02-12T05:15:18;103456.28;;;7.96;76.70
35910;BME280;22004;49.120;-0.200;2023-02-12T05:17:43;103443.75;;;8.11;76.30
35910;BME280;22004;49.120;-0.200;2023-02-12T05:20:10;103448.19;;;8.39;75.54
35910;BME280;22004;49.120;-0.200;2023-02-12T05:22:35;103453.88;;;8.06;76.20
35910;BME280;22004;49.120;-0.200;2023-02-12T05:25:01;103446.69;;;8.21;76.06
35910;BME280;22004;49.120;-0.200;2023-02-12T05:27:26;103446.06;;;8.30;75.97
35910;BME280;22004;49.120;-0.200;2023-02-12T05:29:52;103447.53;;;7.66;77.77
35910;BME280;22004;49.120;-0.200;2023-02-12T05:32:17;103449.50;;;7.91;76.83
35910;BME280;22004;49.120;-0.200;2023-02-12T05:34:42;103450.38;;;7.91;77.00
35910;BME280;22004;49.120;-0.200;2023-02-12T05:37:08;103454.88;;;7.91;77.01
35910;BME280;22004;49.120;-0.200;2023-02-12T05:39:33;103450.38;;;7.63;78.23
35910;BME280;22004;49.120;-0.200;2023-02-12T05:41:58;103436.50;;;7.99;76.69
35910;BME280;22004;49.120;-0.200;2023-02-12T05:44:23;103450.53;;;7.60;78.36
35910;BME280;22004;49.120;-0.200;2023-02-12T05:46:49;103437.47;;;7.84;77.40
35910;BME280;22004;49.120;-0.200;2023-02-12T05:49:14;103446.72;;;7.49;78.64
35910;BME280;22004;49.120;-0.200;2023-02-12T05:51:40;103440.06;;;7.57;78.48
35910;BME280;22004;49.120;-0.200;2023-02-12T05:54:06;103443.19;;;7.49;78.90
35910;BME280;22004;49.120;-0.200;2023-02-12T05:56:33;103446.16;;;7.59;78.58
35910;BME280;22004;49.120;-0.200;2023-02-12T05:59:02;103444.63;;;7.40;78.83
35910;BME280;22004;49.120;-0.200;2023-02-12T06:01:33;103447.13;;;7.58;79.00
35910;BME280;22004;49.120;-0.200;2023-02-12T06:04:00;103451.22;;;7.92;77.48
35910;BME280;22004;49.120;-0.200;2023-02-12T06:06:27;103446.50;;;7.95;76.40
35910;BME280;22004;49.120;-0.200;2023-02-12T06:08:53;103448.25;;;7.54;78.18
35910;BME280;22004;49.120;-0.200;2023-02-12T06:11:19;103455.81;;;7.61;78.17
35910;BME280;22004;49.120;-0.200;2023-02-12T06:13:45;103450.91;;;7.39;78.43
35910;BME280;22004;49.120;-0.200;2023-02-12T06:18:47;103442.22;;;7.36;78.88
35910;BME280;22004;49.120;-0.200;2023-02-12T06:21:13;103441.50;;;7.76;77.78
35910;BME280;22004;49.120;-0.200;2023-02-12T06:23:39;103440.13;;;7.55;78.29
35910;BME280;22004;49.120;-0.200;2023-02-12T06:26:04;103442.47;;;7.61;77.77
35910;BME280;22004;49.120;-0.200;2023-02-12T06:28:30;103437.28;;;7.44;78.04
35910;BME280;22004;49.120;-0.200;2023-02-12T06:30:55;103425.06;;;7.68;77.74
35910;BME280;22004;49.120;-0.200;2023-02-12T06:33:20;103425.06;;;7.54;78.47
35910;BME280;22004;49.120;-0.200;2023-02-12T06:35:46;103428.81;;;7.66;77.64
35910;BME280;22004;49.120;-0.200;2023-02-12T06:38:11;103440.81;;;7.73;77.47
35910;BME280;22004;49.120;-0.200;2023-02-12T06:40:37;103432.13;;;7.69;77.09
35910;BME280;22004;49.120;-0.200;2023-02-12T06:43:02;103423.72;;;8.31;75.33
35910;BME280;22004;49.120;-0.200;2023-02-12T06:45:27;103435.16;;;8.06;75.97
35910;BME280;22004;49.120;-0.200;2023-02-12T06:47:53;103431.94;;;7.72;77.13
35910;BME280;22004;49.120;-0.200;2023-02-12T06:50:18;103425.06;;;7.68;77.64
35910;BME280;22004;49.120;-0.200;2023-02-12T06:52:44;103424.19;;;7.82;76.81
35910;BME280;22004;49.120;-0.200;2023-02-12T06:55:09;103425.31;;;8.07;76.32
35910;BME280;22004;49.120;-0.200;2023-02-12T06:57:34;103428.56;;;7.97;76.14
35910;BME280;22004;49.120;-0.200;2023-02-12T07:00:00;103417.19;;;7.94;76.41
35910;BME280;22004;49.120;-0.200;2023-02-12T07:02:25;103417.63;;;8.15;75.80
35910;BME280;22004;49.120;-0.200;2023-02-12T07:04:50;103423.13;;;7.85;76.78
35910;BME280;22004;49.120;-0.200;2023-02-12T07:07:16;103427.16;;;7.63;77.72
35910;BME280;22004;49.120;-0.200;2023-02-12T07:09:41;103427.63;;;7.70;76.95
35910;BME280;22004;49.120;-0.200;2023-02-12T07:12:06;103435.94;;;7.94;76.33
35910;BME280;22004;49.120;-0.200;2023-02-12T07:14:32;103429.28;;;8.14;76.06
35910;BME280;22004;49.120;-0.200;2023-02-12T07:16:57;103424.03;;;8.26;75.21
35910;BME280;22004;49.120;-0.200;2023-02-12T07:19:23;103427.56;;;8.27;75.10
35910;BME280;22004;49.120;-0.200;2023-02-12T07:21:48;103435.38;;;7.60;77.29
35910;BME280;22004;49.120;-0.200;2023-02-12T07:24:14;103432.56;;;8.04;75.88
35910;BME280;22004;49.120;-0.200;2023-02-12T07:26:40;103439.00;;;7.59;77.34
35910;BME280;22004;49.120;-0.200;2023-02-12T07:29:06;103439.56;;;7.78;76.49
35910;BME280;22004;49.120;-0.200;2023-02-12T07:31:32;103443.09;;;7.79;76.46
35910;BME280;22004;49.120;-0.200;2023-02-12T07:33:59;103443.75;;;7.97;76.41
35910;BME280;22004;49.120;-0.200;2023-02-12T07:36:27;103442.53;;;7.74;76.75
35910;BME280;22004;49.120;-0.200;2023-02-12T07:38:53;103448.94;;;7.71;76.64
35910;BME280;22004;49.120;-0.200;2023-02-12T07:41:21;103450.81;;;7.41;77.48
35910;BME280;22004;49.120;-0.200;2023-02-12T07:43:51;103442.69;;;7.28;78.00
35910;BME280;22004;49.120;-0.200;2023-02-12T07:46:23;103438.47;;;8.10;75.48
35910;BME280;22004;49.120;-0.200;2023-02-12T07:48:50;103450.56;;;7.88;75.98
35910;BME280;22004;49.120;-0.200;2023-02-12T07:51:17;103448.94;;;7.57;76.62
35910;BME280;22004;49.120;-0.200;2023-02-12T07:53:46;103448.75;;;7.46;77.66
35910;BME280;22004;49.120;-0.200;2023-02-12T07:56:20;103452.47;;;7.58;77.09
35910;BME280;22004;49.120;-0.200;2023-02-12T07:58:47;103440.19;;;7.25;77.77
35910;BME280;22004;49.120;-0.200;2023-02-12T08:01:24;103447.88;;;7.45;77.34
35910;BME280;22004;49.120;-0.200;2023-02-12T08:03:54;103448.53;;;7.49;77.35
35910;BME280;22004;49.120;-0.200;2023-02-12T08:06:24;103442.97;;;7.95;76.55
35910;BME280;22004;49.120;-0.200;2023-02-12T08:08:51;103444.88;;;7.36;78.04
35910;BME280;22004;49.120;-0.200;2023-02-12T08:11:17;103443.97;;;7.65;77.32
35910;BME280;22004;49.120;-0.200;2023-02-12T08:13:43;103441.72;;;8.15;75.64
35910;BME280;22004;49.120;-0.200;2023-02-12T08:16:19;103443.03;;;7.52;77.52
35910;BME280;22004;49.120;-0.200;2023-02-12T08:18:45;103444.34;;;7.59;77.70
35910;BME280;22004;49.120;-0.200;2023-02-12T08:21:16;103455.50;;;7.37;78.48
35910;BME280;22004;49.120;-0.200;2023-02-12T08:23:42;103454.25;;;7.29;78.11
35910;BME280;22004;49.120;-0.200;2023-02-12T08:26:13;103448.94;;;7.71;77.19
35910;BME280;22004;49.120;-0.200;2023-02-12T08:28:44;103448.06;;;7.42;78.45
35910;BME280;22004;49.120;-0.200;2023-02-12T08:31:16;103442.75;;;7.57;76.91
35910;BME280;22004;49.120;-0.200;2023-02-12T08:33:45;103432.22;;;7.39;76.66
35910;BME280;22004;49.120;-0.200;2023-02-12T08:36:12;103438.44;;;7.54;77.30
35910;BME280;22004;49.120;-0.200;2023-02-12T08:38:39;103443.28;;;7.47;76.65
35910;BME280;22004;49.120;-0.200;2023-02-12T08:41:06;103437.75;;;7.36;77.02
35910;BME280;22004;49.120;-0.200;2023-02-12T08:43:32;103439.66;;;7.63;76.33
35910;BME280;22004;49.120;-0.200;2023-02-12T08:46:09;103437.66;;;7.38;77.22
35910;BME280;22004;49.120;-0.200;2023-02-12T08:48:35;103441.34;;;7.21;77.47
35910;BME280;22004;49.120;-0.200;2023-02-12T08:53:33;103436.59;;;7.69;76.51
35910;BME280;22004;49.120;-0.200;2023-02-12T08:55:59;103437.84;;;7.35;76.82
35910;BME280;22004;49.120;-0.200;2023-02-12T08:58:24;103431.44;;;7.23;77.72
35910;BME280;22004;49.120;-0.200;2023-02-12T09:00:50;103443.66;;;7.70;76.49
35910;BME280;22004;49.120;-0.200;2023-02-12T09:03:15;103431.53;;;7.36;77.02
35910;BME280;22004;49.120;-0.200;2023-02-12T09:05:41;103442.34;;;7.48;76.75
35910;BME280;22004;49.120;-0.200;2023-02-12T09:08:07;103441.44;;;7.19;77.48
35910;BME280;22004;49.120;-0.200;2023-02-12T09:10:34;103437.09;;;7.61;76.55
35910;BME280;22004;49.120;-0.200;2023-02-12T09:13:02;103433.19;;;7.53;76.64
35910;BME280;22004;49.120;-0.200;2023-02-12T09:15:28;103440.34;;;7.66;76.75
35910;BME280;22004;49.120;-0.200;2023-02-12T09:17:53;103435.06;;;7.65;76.66
35910;BME280;22004;49.120;-0.200;2023-02-12T09:20:18;103437.19;;;7.60;76.30
35910;BME280;22004;49.120;-0.200;2023-02-12T09:22:44;103447.41;;;7.67;76.04
35910;BME280;22004;49.120;-0.200;2023-02-12T09:25:09;103450.81;;;7.55;76.22
35910;BME280;22004;49.120;-0.200;2023-02-12T09:27:34;103453.09;;;8.04;75.76
35910;BME280;22004;49.120;-0.200;2023-02-12T09:30:00;103451.81;;;7.68;76.20
35910;BME280;22004;49.120;-0.200;2023-02-12T09:32:25;103461.72;;;7.38;77.35
35910;BME280;22004;49.120;-0.200;2023-02-12T09:34:50;103452.19;;;7.48;77.06
35910;BME280;22004;49.120;-0.200;2023-02-12T09:37:16;103465.44;;;7.92;75.61
35910;BME280;22004;49.120;-0.200;2023-02-12T09:39:41;103473.09;;;7.98;75.95
35910;BME280;22004;49.120;-0.200;2023-02-12T09:42:27;103468.91;;;7.51;76.81
35910;BME280;22004;49.120;-0.200;2023-02-12T09:45:39;103478.94;;;7.62;76.84
35910;BME280;22004;49.120;-0.200;2023-02-12T09:48:12;103472.72;;;7.76;76.43
35910;BME280;22004;49.120;-0.200;2023-02-12T09:50:44;103482.66;;;8.02;76.10
35910;BME280;22004;49.120;-0.200;2023-02-12T09:53:16;103475.28;;;7.63;77.18
35910;BME280;22004;49.120;-0.200;2023-02-12T09:55:43;103480.50;;;7.50;77.18
35910;BME280;22004;49.120;-0.200;2023-02-12T09:58:14;103476.69;;;7.40;77.59
35910;BME280;22004;49.120;-0.200;2023-02-12T10:00:41;103467.81;;;7.40;77.11
35910;BME280;22004;49.120;-0.200;2023-02-12T10:03:13;103463.25;;;7.42;77.67
35910;BME280;22004;49.120;-0.200;2023-02-12T10:05:50;103465.81;;;7.43;77.46
35910;BME280;22004;49.120;-0.200;2023-02-12T10:08:41;103463.81;;;7.75;76.65
35910;BME280;22004;49.120;-0.200;2023-02-12T10:14:04;103472.41;;;8.09;75.47
35910;BME280;22004;49.120;-0.200;2023-02-12T10:19:21;103470.13;;;7.60;75.94
35910;BME280;22004;49.120;-0.200;2023-02-12T10:21:58;103479.28;;;7.42;76.14
35910;BME280;22004;49.120;-0.200;2023-02-12T10:24:55;103481.31;;;7.53;76.07
35910;BME280;22004;49.120;-0.200;2023-02-12T10:27:40;103489.56;;;7.34;75.56
35910;BME280;22004;49.120;-0.200;2023-02-12T10:30:19;103485.78;;;8.09;74.07
35910;BME280;22004;49.120;-0.200;2023-02-12T10:32:47;103489.31;;;8.10;73.51
35910;BME280;22004;49.120;-0.200;2023-02-12T10:35:16;103491.72;;;7.71;74.96
35910;BME280;22004;49.120;-0.200;2023-02-12T10:38:04;103488.91;;;8.30;73.82
35910;BME280;22004;49.120;-0.200;2023-02-12T10:40:33;103488.47;;;7.52;75.81
35910;BME280;22004;49.120;-0.200;2023-02-12T10:43:00;103479.88;;;7.75;74.67
35910;BME280;22004;49.120;-0.200;2023-02-12T10:45:35;103487.31;;;7.85;74.94
35910;BME280;22004;49.120;-0.200;2023-02-12T10:48:16;103486.53;;;7.54;76.19
35910;BME280;22004;49.120;-0.200;2023-02-12T10:50:51;103485.28;;;7.45;75.94
35910;BME280;22004;49.120;-0.200;2023-02-12T10:53:22;103476.72;;;7.55;74.97
35910;BME280;22004;49.120;-0.200;2023-02-12T10:55:48;103485.72;;;7.96;74.63
35910;BME280;22004;49.120;-0.200;2023-02-12T10:58:23;103495.34;;;7.85;74.29
35910;BME280;22004;49.120;-0.200;2023-02-12T11:01:00;103487.81;;;7.91;75.23
35910;BME280;22004;49.120;-0.200;2023-02-12T11:03:29;103485.59;;;7.84;74.83
35910;BME280;22004;49.120;-0.200;2023-02-12T11:05:54;103479.00;;;7.75;74.61
35910;BME280;22004;49.120;-0.200;2023-02-12T11:10:51;103476.84;;;7.96;74.09
35910;BME280;22004;49.120;-0.200;2023-02-12T11:13:24;103466.31;;;7.64;74.94
35910;BME280;22004;49.120;-0.200;2023-02-12T11:15:50;103476.31;;;8.03;74.12
35910;BME280;22004;49.120;-0.200;2023-02-12T11:18:29;103459.97;;;8.22;74.06
35910;BME280;22004;49.120;-0.200;2023-02-12T11:21:08;103476.81;;;7.67;75.08
35910;BME280;22004;49.120;-0.200;2023-02-12T11:28:35;103469.41;;;8.69;71.61
35910;BME280;22004;49.120;-0.200;2023-02-12T11:31:19;103465.63;;;8.03;74.08
35910;BME280;22004;49.120;-0.200;2023-02-12T11:34:06;103454.50;;;8.38;72.95
35910;BME280;22004;49.120;-0.200;2023-02-12T11:36:35;103443.47;;;8.16;73.69
35910;BME280;22004;49.120;-0.200;2023-02-12T11:39:02;103444.00;;;8.62;72.04
35910;BME280;22004;49.120;-0.200;2023-02-12T11:41:34;103442.13;;;8.50;72.77
35910;BME280;22004;49.120;-0.200;2023-02-12T11:44:08;103442.47;;;8.58;72.64
35910;BME280;22004;49.120;-0.200;2023-02-12T11:46:34;103439.22;;;8.80;71.02
35910;BME280;22004;49.120;-0.200;2023-02-12T11:49:00;103432.94;;;8.13;73.89
35910;BME280;22004;49.120;-0.200;2023-02-12T11:51:28;103440.25;;;8.38;73.10
35910;BME280;22004;49.120;-0.200;2023-02-12T11:53:59;103435.28;;;8.32;73.24
35910;BME280;22004;49.120;-0.200;2023-02-12T11:56:40;103430.38;;;8.11;74.08
35910;BME280;22004;49.120;-0.200;2023-02-12T11:59:26;103426.66;;;7.99;74.06
35910;BME280;22004;49.120;-0.200;2023-02-12T12:01:54;103423.53;;;8.61;72.77
35910;BME280;22004;49.120;-0.200;2023-02-12T12:04:22;103422.75;;;8.86;72.14
35910;BME280;22004;49.120;-0.200;2023-02-12T12:06:59;103411.94;;;8.88;71.30
35910;BME280;22004;49.120;-0.200;2023-02-12T12:09:40;103415.88;;;8.95;71.37
35910;BME280;22004;49.120;-0.200;2023-02-12T12:12:44;103409.59;;;8.56;71.66
35910;BME280;22004;49.120;-0.200;2023-02-12T12:15:30;103403.31;;;8.70;72.29
35910;BME280;22004;49.120;-0.200;2023-02-12T12:18:29;103403.59;;;8.52;72.65
35910;BME280;22004;49.120;-0.200;2023-02-12T12:23:55;103407.69;;;8.17;73.99
35910;BME280;22004;49.120;-0.200;2023-02-12T12:26:25;103397.75;;;8.73;72.59
35910;BME280;22004;49.120;-0.200;2023-02-12T12:29:12;103390.31;;;8.51;72.41
35910;BME280;22004;49.120;-0.200;2023-02-12T12:31:43;103391.81;;;8.55;72.32
35910;BME280;22004;49.120;-0.200;2023-02-12T12:34:28;103385.09;;;8.62;71.87
35910;BME280;22004;49.120;-0.200;2023-02-12T12:53:47;103361.00;;;8.62;71.62
35910;BME280;22004;49.120;-0.200;2023-02-12T13:09:45;103344.94;;;8.88;70.58
35910;BME280;22004;49.120;-0.200;2023-02-12T13:14:59;103342.72;;;8.82;70.26
35910;BME280;22004;49.120;-0.200;2023-02-12T13:30:59;103326.75;;;8.93;69.79
35910;BME280;22004;49.120;-0.200;2023-02-12T13:36:09;103322.22;;;8.93;70.11
35910;BME280;22004;49.120;-0.200;2023-02-12T13:38:38;103313.34;;;8.93;70.65
35910;BME280;22004;49.120;-0.200;2023-02-12T13:41:09;103306.28;;;8.92;69.60
35910;BME280;22004;49.120;-0.200;2023-02-12T13:46:13;103302.31;;;8.97;69.84
35910;BME280;22004;49.120;-0.200;2023-02-12T13:48:59;103304.22;;;8.70;70.14
35910;BME280;22004;49.120;-0.200;2023-02-12T13:56:59;103299.66;;;10.07;67.18
35910;BME280;22004;49.120;-0.200;2023-02-12T14:04:58;103289.28;;;9.42;69.14
35910;BME280;22004;49.120;-0.200;2023-02-12T14:07:43;103299.59;;;9.36;68.75
35910;BME280;22004;49.120;-0.200;2023-02-12T14:10:33;103302.88;;;9.39;68.88
35910;BME280;22004;49.120;-0.200;2023-02-12T14:15:38;103302.31;;;9.10;69.19
35910;BME280;22004;49.120;-0.200;2023-02-12T14:18:25;103304.44;;;8.92;69.78
35910;BME280;22004;49.120;-0.200;2023-02-12T14:23:45;103299.38;;;8.75;69.88
35910;BME280;22004;49.120;-0.200;2023-02-12T14:26:18;103292.53;;;8.58;70.71
35910;BME280;22004;49.120;-0.200;2023-02-12T14:28:46;103289.09;;;8.69;70.13
35910;BME280;22004;49.120;-0.200;2023-02-12T14:31:25;103283.63;;;8.45;70.48
35910;BME280;22004;49.120;-0.200;2023-02-12T14:39:07;103278.84;;;8.75;70.54
35910;BME280;22004;49.120;-0.200;2023-02-12T14:41:50;103281.28;;;9.04;69.20
35910;BME280;22004;49.120;-0.200;2023-02-12T14:49:26;103273.28;;;8.66;71.33
35910;BME280;22004;49.120;-0.200;2023-02-12T14:54:32;103270.25;;;8.83;70.83
35910;BME280;22004;49.120;-0.200;2023-02-12T14:57:02;103270.47;;;9.05;69.88
35910;BME280;22004;49.120;-0.200;2023-02-12T14:59:33;103265.31;;;8.64;70.96
35910;BME280;22004;49.120;-0.200;2023-02-12T15:02:02;103270.25;;;8.58;70.40
35910;BME280;22004;49.120;-0.200;2023-02-12T15:04:33;103277.31;;;8.59;70.88
35910;BME280;22004;49.120;-0.200;2023-02-12T15:07:08;103275.50;;;8.59;70.79
35910;BME280;22004;49.120;-0.200;2023-02-12T15:09:50;103277.97;;;8.88;70.22
35910;BME280;22004;49.120;-0.200;2023-02-12T15:12:20;103267.88;;;9.04;70.41
35910;BME280;22004;49.120;-0.200;2023-02-12T15:15:00;103262.44;;;8.42;71.16
35910;BME280;22004;49.120;-0.200;2023-02-12T15:17:31;103268.44;;;8.71;70.32
35910;BME280;22004;49.120;-0.200;2023-02-12T15:22:42;103257.50;;;8.74;70.77
35910;BME280;22004;49.120;-0.200;2023-02-12T15:25:25;103260.84;;;8.90;70.48
35910;BME280;22004;49.120;-0.200;2023-02-12T15:28:03;103257.75;;;8.71;70.72